createdAt,value
2023-02-22T00:01:10.900Z,3.07
2023-02-22T00:04:35.623Z,3.10
2023-02-22T00:08:01.449Z,3.07
2023-02-22T00:11:31.461Z,3.09
2023-02-22T00:15:00.563Z,3.11
2023-02-22T00:18:27.986Z,3.02
2023-02-22T00:21:58.120Z,2.90
2023-02-22T00:25:24.851Z,2.92
2023-02-22T00:28:51.305Z,1.24
2023-02-22T00:32:15.472Z,2.11
2023-02-22T00:35:40.502Z,2.49
2023-02-22T00:39:09.420Z,2.60
2023-02-22T00:42:38.076Z,2.70
2023-02-22T00:46:01.354Z,2.74
2023-02-22T00:49:29.794Z,2.74
2023-02-22T00:52:53.135Z,2.62
2023-02-22T00:56:17.584Z,2.62
2023-02-22T00:59:45.767Z,2.68
2023-02-22T01:03:11.124Z,2.78
2023-02-22T01:06:41.168Z,2.70
2023-02-22T01:10:09.311Z,2.67
2023-02-22T01:13:32.829Z,2.71
2023-02-22T01:16:57.043Z,2.63
2023-02-22T01:20:23.125Z,2.64
2023-02-22T01:24:11.564Z,2.57
2023-02-22T01:27:38.430Z,2.60
2023-02-22T01:31:01.451Z,2.59
2023-02-22T01:34:25.987Z,2.63
2023-02-22T01:37:51.065Z,2.54
2023-02-22T01:41:22.540Z,2.55
2023-02-22T01:45:30.783Z,2.69
2023-02-22T01:49:08.980Z,2.73
2023-02-22T01:52:33.765Z,2.63
2023-02-22T01:56:00.338Z,2.60
2023-02-22T01:59:24.850Z,2.45
2023-02-22T02:03:03.794Z,2.52
2023-02-22T02:06:35.687Z,2.51
2023-02-22T02:10:14.222Z,2.35
2023-02-22T02:13:49.786Z,2.45
2023-02-22T02:17:22.629Z,2.52
2023-02-22T02:21:18.674Z,2.47
2023-02-22T02:25:26.430Z,2.56
2023-02-22T02:29:25.948Z,2.39
2023-02-22T02:32:58.838Z,2.31
2023-02-22T02:36:34.796Z,2.29
2023-02-22T02:44:22.632Z,2.22
2023-02-22T02:48:04.600Z,2.25
2023-02-22T02:51:34.293Z,2.29
2023-02-22T02:55:06.798Z,2.31
2023-02-22T02:58:35.733Z,2.36
2023-02-22T03:02:26.327Z,2.46
2023-02-22T03:06:21.617Z,2.55
2023-02-22T03:10:18.013Z,2.59
2023-02-22T03:14:01.462Z,2.68
2023-02-22T03:18:02.387Z,2.80
2023-02-22T03:21:50.097Z,2.80
2023-02-22T03:25:24.765Z,2.80
2023-02-22T03:33:08.934Z,2.69
2023-02-22T03:36:41.425Z,2.75
2023-02-22T03:40:22.713Z,2.66
2023-02-22T03:43:55.505Z,2.69
2023-02-22T03:47:41.592Z,2.70
2023-02-22T03:51:21.030Z,2.67
2023-02-22T03:54:55.251Z,2.61
2023-02-22T03:58:22.359Z,2.63
2023-02-22T04:01:45.355Z,2.60
2023-02-22T04:05:09.692Z,2.56
2023-02-22T04:08:32.739Z,2.46
2023-02-22T04:11:54.613Z,2.42
2023-02-22T04:15:23.348Z,2.36
2023-02-22T04:18:48.853Z,2.31
2023-02-22T04:22:13.783Z,2.31
2023-02-22T04:25:36.931Z,2.33
2023-02-22T04:29:08.242Z,2.28
2023-02-22T04:32:33.477Z,2.26
2023-02-22T04:35:57.668Z,2.29
2023-02-22T04:39:21.889Z,2.24
2023-02-22T04:42:47.293Z,2.26
2023-02-22T04:46:09.258Z,2.21
2023-02-22T04:49:31.219Z,2.17
2023-02-22T04:52:53.846Z,2.16
2023-02-22T04:56:19.336Z,2.09
2023-02-22T04:59:43.877Z,2.03
2023-02-22T05:03:07.386Z,2.04
2023-02-22T05:06:29.191Z,1.99
2023-02-22T05:09:51.098Z,2.01
2023-02-22T05:13:14.105Z,1.91
2023-02-22T05:16:37.677Z,1.87
2023-02-22T05:19:59.842Z,1.92
2023-02-22T05:23:21.661Z,1.88
2023-02-22T05:26:51.323Z,1.94
2023-02-22T05:30:13.559Z,1.99
2023-02-22T05:33:35.612Z,2.11
2023-02-22T05:36:57.420Z,2.11
2023-02-22T05:40:24.101Z,2.03
2023-02-22T05:43:46.390Z,2.10
2023-02-22T05:47:08.193Z,2.11
2023-02-22T05:50:30.089Z,2.23
2023-02-22T05:53:52.523Z,2.23
2023-02-22T05:57:14.422Z,2.19
2023-02-22T06:00:36.533Z,2.14
2023-02-22T06:03:59.344Z,2.10
2023-02-22T06:07:22.768Z,2.05
2023-02-22T06:10:44.957Z,1.96
2023-02-22T06:14:06.817Z,1.96
2023-02-22T06:17:30.441Z,2.02
2023-02-22T06:20:53.337Z,2.03
2023-02-22T06:24:15.333Z,1.95
2023-02-22T06:27:38.256Z,1.96
2023-02-22T06:31:00.202Z,1.87
2023-02-22T06:34:24.049Z,1.96
2023-02-22T06:37:46.869Z,2.02
2023-02-22T06:41:11.001Z,2.10
2023-02-22T06:44:34.220Z,2.03
2023-02-22T06:47:56.026Z,2.07
2023-02-22T06:51:18.301Z,2.17
2023-02-22T06:54:40.282Z,2.14
2023-02-22T06:58:04.816Z,2.18
2023-02-22T07:01:26.742Z,2.19
2023-02-22T07:04:48.545Z,2.29
2023-02-22T07:08:13.349Z,2.50
2023-02-22T07:11:38.662Z,2.68
2023-02-22T07:15:00.590Z,2.88
2023-02-22T07:18:22.390Z,2.99
2023-02-22T07:21:44.509Z,3.14
2023-02-22T07:25:12.179Z,3.33
2023-02-22T07:28:34.098Z,3.38
2023-02-22T07:31:57.736Z,3.33
2023-02-22T07:35:29.636Z,3.43
2023-02-22T07:38:52.420Z,3.53
2023-02-22T07:42:14.219Z,3.59
2023-02-22T07:45:36.415Z,3.81
2023-02-22T07:48:58.241Z,4.11
2023-02-22T07:52:20.055Z,4.29
2023-02-22T07:55:42.041Z,4.68
2023-02-22T07:59:03.925Z,5.12
2023-02-22T08:02:26.701Z,5.43
2023-02-22T08:05:56.304Z,5.71
2023-02-22T08:09:18.148Z,6.04
2023-02-22T08:12:41.174Z,6.37
2023-02-22T08:16:03.622Z,6.65
2023-02-22T08:19:25.497Z,6.90
2023-02-22T08:22:48.357Z,7.15
2023-02-22T08:26:15.495Z,7.43
2023-02-22T08:29:37.357Z,7.76
2023-02-22T08:32:59.921Z,8.26
2023-02-22T08:36:21.832Z,8.65
2023-02-22T08:39:43.946Z,9.05
2023-02-22T08:43:06.574Z,9.47
2023-02-22T08:46:28.865Z,9.83
2023-02-22T08:49:50.706Z,9.91
2023-02-22T08:53:14.458Z,10.40
2023-02-22T08:56:36.332Z,10.91
2023-02-22T08:59:58.338Z,11.26
2023-02-22T09:03:21.343Z,11.11
2023-02-22T09:06:44.093Z,11.26
2023-02-22T09:10:06.594Z,10.57
2023-02-22T09:13:29.438Z,9.79
2023-02-22T09:16:51.587Z,10.00
2023-02-22T09:20:17.796Z,10.22
2023-02-22T09:23:39.664Z,11.94
2023-02-22T09:27:04.263Z,12.35
2023-02-22T09:30:33.896Z,11.80
2023-02-22T09:33:55.697Z,11.36
2023-02-22T09:37:18.540Z,12.40
2023-02-22T09:40:47.432Z,11.93
2023-02-22T09:44:56.839Z,12.52
2023-02-22T09:48:22.391Z,12.63
2023-02-22T09:51:55.600Z,12.75
2023-02-22T09:55:36.936Z,11.58
2023-02-22T09:59:05.205Z,12.93
2023-02-22T10:02:36.538Z,13.23
2023-02-22T10:06:15.617Z,12.97
2023-02-22T10:10:17.695Z,12.14
2023-02-22T10:14:16.056Z,12.90
2023-02-22T10:18:19.307Z,13.03
2023-02-22T10:22:16.000Z,12.61
2023-02-22T10:25:44.952Z,11.69
2023-02-22T10:29:42.364Z,12.27
2023-02-22T10:33:21.770Z,12.42
2023-02-22T10:36:50.223Z,12.89
2023-02-22T10:40:17.330Z,12.46
2023-02-22T10:43:52.064Z,13.14
2023-02-22T10:47:17.962Z,13.52
2023-02-22T10:50:45.623Z,13.48
2023-02-22T10:54:31.633Z,13.67
2023-02-22T10:58:13.393Z,13.40
2023-02-22T11:01:45.601Z,13.57
2023-02-22T11:05:30.963Z,13.60
2023-02-22T11:09:19.025Z,13.72
2023-02-22T11:12:47.624Z,14.03
2023-02-22T11:16:26.763Z,14.20
2023-02-22T11:19:50.397Z,13.99
2023-02-22T11:23:14.505Z,14.20
2023-02-22T11:26:51.195Z,14.21
2023-02-22T11:31:20.408Z,14.42
2023-02-22T11:34:42.976Z,14.48
2023-02-22T11:38:20.947Z,14.40
2023-02-22T11:41:43.907Z,14.60
2023-02-22T11:45:27.500Z,14.67
2023-02-22T11:49:05.948Z,14.85
2023-02-22T11:52:46.160Z,14.90
2023-02-22T11:56:37.772Z,13.62
2023-02-22T12:00:33.354Z,13.49
2023-02-22T12:04:26.597Z,13.92
2023-02-22T12:08:41.055Z,14.48
2023-02-22T12:12:38.007Z,15.49
2023-02-22T12:16:33.159Z,15.74
2023-02-22T12:20:06.869Z,15.89
2023-02-22T12:23:40.597Z,16.00
2023-02-22T12:27:33.708Z,16.27
2023-02-22T12:31:29.584Z,16.13
2023-02-22T12:35:20.680Z,15.99
2023-02-22T12:38:58.180Z,16.43
2023-02-22T12:42:46.967Z,16.84
2023-02-22T12:46:20.177Z,17.20
2023-02-22T12:49:58.290Z,17.30
2023-02-22T12:53:35.132Z,17.18
2023-02-22T12:57:34.427Z,17.02
2023-02-22T13:01:12.103Z,17.08
2023-02-22T13:04:36.804Z,17.25
2023-02-22T13:08:31.743Z,17.34
2023-02-22T13:12:40.864Z,17.42
2023-02-22T13:16:27.830Z,16.96
2023-02-22T13:20:01.642Z,16.70
2023-02-22T13:23:54.263Z,16.52
2023-02-22T13:27:48.690Z,16.14
2023-02-22T13:31:45.611Z,15.89
2023-02-22T13:35:36.725Z,16.03
2023-02-22T13:39:45.703Z,16.36
2023-02-22T13:43:28.051Z,16.25
2023-02-22T13:47:23.077Z,16.19
2023-02-22T13:51:17.067Z,16.22
2023-02-22T13:54:46.540Z,16.30
2023-02-22T13:58:12.449Z,16.34
2023-02-22T14:01:46.736Z,16.60
2023-02-22T14:05:39.572Z,16.86
2023-02-22T14:09:08.498Z,16.95
2023-02-22T14:12:30.250Z,17.00
2023-02-22T14:16:19.533Z,16.59
2023-02-22T14:19:41.528Z,16.55
2023-02-22T14:23:35.350Z,16.43
2023-02-22T14:27:06.196Z,16.37
2023-02-22T14:30:33.445Z,16.19
2023-02-22T14:34:06.113Z,16.16
2023-02-22T14:37:39.118Z,15.69
2023-02-22T14:41:03.421Z,15.82
2023-02-22T14:44:48.769Z,15.60
2023-02-22T14:48:39.374Z,15.62
2023-02-22T14:52:17.314Z,15.47
2023-02-22T14:55:56.585Z,15.52
2023-02-22T14:59:25.210Z,15.08
2023-02-22T15:02:57.999Z,15.17
2023-02-22T15:10:50.017Z,15.45
2023-02-22T15:14:38.154Z,15.44
2023-02-22T15:18:29.948Z,15.33
2023-02-22T15:21:55.819Z,15.33
2023-02-22T15:25:28.088Z,15.38
2023-02-22T15:28:59.756Z,15.33
2023-02-22T15:32:37.198Z,15.18
2023-02-22T15:35:59.487Z,15.09
2023-02-22T15:39:33.069Z,14.92
2023-02-22T15:43:05.177Z,14.64
2023-02-22T15:46:27.339Z,14.70
2023-02-22T15:50:32.204Z,14.69
2023-02-22T15:54:03.020Z,14.71
2023-02-22T15:57:27.247Z,14.30
2023-02-22T16:01:03.651Z,13.87
2023-02-22T16:04:32.012Z,14.45
2023-02-22T16:07:53.963Z,14.46
2023-02-22T16:11:40.197Z,14.44
2023-02-22T16:15:03.131Z,14.45
2023-02-22T16:18:38.215Z,14.29
2023-02-22T16:22:05.093Z,14.30
2023-02-22T16:25:41.700Z,14.25
2023-02-22T16:29:08.765Z,13.99
2023-02-22T16:32:30.783Z,13.81
2023-02-22T16:35:52.736Z,13.85
2023-02-22T16:39:26.976Z,13.97
2023-02-22T16:42:48.806Z,13.90
2023-02-22T16:46:10.762Z,13.96
2023-02-22T16:49:32.617Z,13.81
2023-02-22T16:53:01.089Z,13.87
2023-02-22T16:56:31.134Z,13.78
2023-02-22T16:59:55.302Z,13.72
2023-02-22T17:03:18.800Z,13.75
2023-02-22T17:06:48.556Z,13.63
2023-02-22T17:10:33.095Z,13.65
2023-02-22T17:13:55.924Z,13.56
2023-02-22T17:17:26.586Z,13.62
2023-02-22T17:20:50.981Z,13.66
2023-02-22T17:24:16.170Z,13.70
2023-02-22T17:27:42.123Z,13.72
2023-02-22T17:31:04.186Z,13.58
2023-02-22T17:34:29.246Z,13.66
2023-02-22T17:37:52.387Z,13.71
2023-02-22T17:41:16.198Z,13.72
2023-02-22T17:44:38.091Z,13.56
2023-02-22T17:47:59.998Z,13.60
2023-02-22T17:51:25.079Z,13.45
2023-02-22T17:54:47.004Z,13.49
2023-02-22T17:58:14.882Z,13.47
2023-02-22T18:01:39.135Z,13.53
2023-02-22T18:05:18.331Z,13.64
2023-02-22T18:08:48.720Z,13.58
2023-02-22T18:12:12.005Z,13.50
2023-02-22T18:15:36.707Z,13.51
2023-02-22T18:19:02.995Z,13.41
2023-02-22T18:22:24.879Z,13.48
2023-02-22T18:26:03.823Z,13.24
2023-02-22T18:29:33.327Z,13.14
2023-02-22T18:32:57.381Z,13.04
2023-02-22T18:36:22.911Z,13.04
2023-02-22T18:39:49.756Z,12.97
2023-02-22T18:43:24.612Z,12.96
2023-02-22T18:46:46.728Z,12.63
2023-02-22T18:50:11.017Z,12.95
2023-02-22T18:53:35.332Z,12.95
2023-02-22T18:56:58.105Z,12.89
2023-02-22T19:00:28.703Z,12.89
2023-02-22T19:03:56.382Z,12.84
2023-02-22T19:07:20.118Z,12.86
2023-02-22T19:10:52.570Z,12.86
2023-02-22T19:14:22.745Z,12.86
2023-02-22T19:17:46.769Z,12.82
2023-02-22T19:21:16.630Z,12.93
2023-02-22T19:24:47.265Z,13.04
2023-02-22T19:28:11.505Z,12.99
2023-02-22T19:31:34.873Z,12.98
2023-02-22T19:35:02.503Z,12.80
2023-02-22T19:38:32.274Z,12.73
2023-02-22T19:41:57.520Z,12.70
2023-02-22T19:45:21.042Z,12.63
2023-02-22T19:48:46.571Z,12.58
2023-02-22T19:52:11.005Z,12.48
2023-02-22T19:55:36.968Z,12.35
2023-02-22T19:59:13.626Z,12.35
2023-02-22T20:02:40.695Z,12.31
2023-02-22T20:06:11.908Z,12.34
2023-02-22T20:09:36.458Z,12.30
2023-02-22T20:13:14.841Z,12.25
2023-02-22T20:16:38.291Z,12.21
2023-02-22T20:20:00.286Z,12.31
2023-02-22T20:24:01.295Z,12.33
2023-02-22T20:27:52.876Z,12.31
2023-02-22T20:35:59.874Z,12.16
2023-02-22T20:39:52.185Z,12.13
2023-02-22T20:43:47.134Z,12.02
2023-02-22T20:56:24.005Z,12.13
2023-02-22T20:59:48.717Z,12.09
2023-02-22T21:03:13.114Z,12.18
2023-02-22T21:11:25.593Z,12.32
2023-02-22T21:15:28.860Z,12.28
2023-02-22T21:19:44.186Z,12.25
2023-02-22T21:23:20.050Z,12.22
2023-02-22T21:26:58.974Z,12.26
2023-02-22T21:31:29.342Z,12.27
2023-02-22T21:38:17.209Z,12.19
2023-02-22T21:45:46.008Z,12.27
2023-02-22T21:53:39.413Z,12.33
2023-02-22T21:57:01.671Z,12.43
2023-02-22T22:00:29.261Z,12.37
2023-02-22T22:03:51.211Z,12.28
2023-02-22T22:07:13.996Z,12.22
2023-02-22T22:10:37.811Z,12.12
2023-02-22T22:14:00.331Z,12.19
2023-02-22T22:17:22.504Z,12.21
2023-02-22T22:20:44.937Z,12.20
2023-02-22T22:24:16.363Z,12.29
2023-02-22T22:27:40.099Z,12.28
2023-02-22T22:31:05.009Z,12.28
2023-02-22T22:34:29.416Z,12.34
2023-02-22T22:37:52.279Z,12.39
2023-02-22T22:41:19.284Z,12.36
2023-02-22T22:44:53.604Z,12.42
2023-02-22T22:48:15.703Z,12.43
2023-02-22T22:51:41.099Z,12.59
2023-02-22T22:55:03.319Z,12.58
2023-02-22T22:58:25.157Z,12.44
2023-02-22T23:01:47.050Z,12.43
2023-02-22T23:05:09.592Z,12.40
2023-02-22T23:08:44.962Z,12.39
2023-02-22T23:12:18.861Z,12.35
2023-02-22T23:15:48.366Z,12.41
2023-02-22T23:19:10.336Z,12.35
2023-02-22T23:22:33.082Z,12.39
2023-02-22T23:26:03.253Z,12.38
2023-02-22T23:29:28.635Z,12.42
2023-02-22T23:32:50.521Z,12.47
2023-02-22T23:36:12.398Z,12.54
2023-02-22T23:39:35.571Z,12.51
2023-02-22T23:42:58.006Z,12.50
2023-02-22T23:46:21.336Z,12.51
2023-02-22T23:49:49.907Z,12.44
2023-02-22T23:53:15.057Z,12.48
2023-02-22T23:56:40.442Z,12.48
